createdAt,value
2019-06-26T00:00:16.812Z,26.40
2019-06-26T00:05:13.488Z,26.30
2019-06-26T00:07:41.943Z,26.20
2019-06-26T00:12:38.856Z,26.40
2019-06-26T00:15:07.947Z,26.30
2019-06-26T00:17:36.452Z,26.30
2019-06-26T00:20:08.387Z,26.10
2019-06-26T00:22:36.821Z,26.30
2019-06-26T00:27:34.983Z,26.10
2019-06-26T00:30:05.360Z,26.10
2019-06-26T00:32:33.993Z,26.00
2019-06-26T00:35:02.519Z,26.10
2019-06-26T00:37:31.026Z,26.10
2019-06-26T00:39:59.479Z,26.00
2019-06-26T00:44:56.247Z,26.00
2019-06-26T00:47:24.751Z,26.00
2019-06-26T00:52:21.400Z,25.80
2019-06-26T00:54:49.864Z,25.90
2019-06-26T00:57:18.378Z,25.80
2019-06-26T00:59:46.837Z,25.80
2019-06-26T01:02:15.311Z,25.80
2019-06-26T01:04:45.475Z,25.80
2019-06-26T01:07:13.931Z,25.80
2019-06-26T01:09:42.462Z,25.70
2019-06-26T01:14:39.083Z,25.70
2019-06-26T01:17:07.592Z,25.60
2019-06-26T01:19:36.028Z,25.60
2019-06-26T01:22:04.547Z,25.60
2019-06-26T01:24:33.325Z,25.50
2019-06-26T01:27:02.003Z,25.40
2019-06-26T01:29:32.626Z,25.40
2019-06-26T01:32:00.607Z,25.30
2019-06-26T01:34:29.055Z,25.30
2019-06-26T01:36:57.507Z,25.40
2019-06-26T01:39:25.945Z,25.30
2019-06-26T01:44:22.635Z,25.30
2019-06-26T01:46:51.091Z,25.20
2019-06-26T01:49:19.603Z,25.30
2019-06-26T01:51:48.054Z,25.30
2019-06-26T01:54:16.525Z,25.20
2019-06-26T01:56:45.030Z,25.10
2019-06-26T01:59:13.524Z,25.10
2019-06-26T02:01:41.987Z,25.20
2019-06-26T02:04:10.425Z,25.10
2019-06-26T02:06:38.876Z,25.10
2019-06-26T02:09:07.564Z,25.00
2019-06-26T02:11:36.023Z,25.00
2019-06-26T02:16:32.615Z,25.20
2019-06-26T02:19:02.730Z,24.60
2019-06-26T02:23:59.287Z,24.70
2019-06-26T02:28:55.932Z,24.90
2019-06-26T02:33:52.587Z,24.90
2019-06-26T02:36:21.189Z,25.00
2019-06-26T02:38:49.654Z,24.50
2019-06-26T02:43:46.279Z,24.50
2019-06-26T02:48:42.852Z,24.50
2019-06-26T02:51:11.276Z,24.50
2019-06-26T02:56:07.904Z,24.50
2019-06-26T02:58:36.379Z,24.50
2019-06-26T03:03:32.932Z,24.30
2019-06-26T03:06:01.397Z,24.30
2019-06-26T03:10:57.959Z,24.20
2019-06-26T03:18:22.714Z,24.20
2019-06-26T03:20:54.227Z,24.30
2019-06-26T03:23:22.695Z,24.20
2019-06-26T03:25:51.128Z,24.20
2019-06-26T03:28:19.598Z,24.20
2019-06-26T03:30:48.278Z,24.00
2019-06-26T03:33:16.734Z,24.10
2019-06-26T03:40:41.440Z,24.10
2019-06-26T03:43:09.949Z,24.00
2019-06-26T03:45:38.412Z,24.00
2019-06-26T03:48:06.991Z,24.10
2019-06-26T03:50:35.555Z,23.90
2019-06-26T03:53:04.128Z,23.90
2019-06-26T03:55:32.804Z,24.40
2019-06-26T03:58:01.331Z,24.20
2019-06-26T04:00:38.667Z,23.90
2019-06-26T04:03:07.495Z,24.20
2019-06-26T04:10:33.136Z,24.40
2019-06-26T04:13:01.707Z,24.00
2019-06-26T04:15:41.464Z,24.50
2019-06-26T04:18:00.319Z,24.30
2019-06-26T04:20:28.783Z,24.40
2019-06-26T04:25:25.409Z,24.30
2019-06-26T04:40:15.484Z,24.90
2019-06-26T04:42:43.915Z,24.90
2019-06-26T04:50:10.506Z,25.10
2019-06-26T04:52:39.143Z,25.00
2019-06-26T04:55:08.030Z,25.10
2019-06-26T04:57:36.727Z,25.20
2019-06-26T05:00:10.356Z,24.90
2019-06-26T05:02:38.882Z,25.20
2019-06-26T05:05:07.682Z,25.20
2019-06-26T05:07:36.235Z,25.30
2019-06-26T05:12:34.571Z,25.30
2019-06-26T05:17:31.969Z,26.40
2019-06-26T05:20:00.400Z,26.60
2019-06-26T05:22:28.867Z,26.50
2019-06-26T05:27:25.437Z,26.80
2019-06-26T05:29:54.595Z,27.30
2019-06-26T05:34:51.539Z,28.00
2019-06-26T05:37:20.003Z,28.50
2019-06-26T05:39:49.165Z,28.40
2019-06-26T05:42:17.680Z,28.60
2019-06-26T05:47:14.251Z,28.70
2019-06-26T05:49:42.715Z,28.30
2019-06-26T05:52:11.152Z,29.00
2019-06-26T05:54:39.619Z,28.90
2019-06-26T05:59:36.725Z,29.60
2019-06-26T06:04:33.500Z,30.40
2019-06-26T06:09:30.183Z,30.20
2019-06-26T06:14:26.826Z,30.20
2019-06-26T06:16:55.276Z,30.40
2019-06-26T06:19:23.732Z,30.60
2019-06-26T06:24:20.351Z,30.00
2019-06-26T06:26:48.809Z,30.50
2019-06-26T06:29:17.377Z,31.10
2019-06-26T06:31:45.926Z,31.10
2019-06-26T06:34:14.400Z,31.00
2019-06-26T06:36:42.863Z,30.70
2019-06-26T06:39:11.321Z,31.30
2019-06-26T06:44:09.711Z,31.80
2019-06-26T06:49:06.363Z,32.00
2019-06-26T06:54:02.893Z,31.70
2019-06-26T06:58:59.475Z,31.90
2019-06-26T07:01:27.923Z,31.40
2019-06-26T07:03:56.362Z,31.00
2019-06-26T07:08:53.016Z,30.20
2019-06-26T07:16:17.923Z,29.30
2019-06-26T07:18:46.358Z,29.20
2019-06-26T07:21:14.820Z,29.30
2019-06-26T07:23:43.259Z,28.60
2019-06-26T07:26:13.414Z,28.30
2019-06-26T07:31:10.240Z,28.50
2019-06-26T07:36:06.879Z,28.90
2019-06-26T07:38:35.335Z,28.90
2019-06-26T07:41:03.975Z,28.80
2019-06-26T07:48:28.669Z,28.90
2019-06-26T07:50:57.194Z,29.00
2019-06-26T07:53:25.630Z,28.50
2019-06-26T07:58:22.197Z,29.50
2019-06-26T08:00:50.790Z,29.20
2019-06-26T08:08:15.629Z,29.40
2019-06-26T08:10:44.393Z,29.40
2019-06-26T08:13:12.844Z,29.40
2019-06-26T08:20:51.877Z,29.30
2019-06-26T08:23:08.387Z,29.70
2019-06-26T08:25:36.947Z,29.60
2019-06-26T08:28:05.413Z,29.70
2019-06-26T08:30:33.839Z,29.80
2019-06-26T08:33:02.343Z,29.70
2019-06-26T08:35:30.912Z,29.80
2019-06-26T08:38:09.870Z,30.00
2019-06-26T08:42:57.743Z,29.90
2019-06-26T08:45:26.175Z,29.80
2019-06-26T08:50:23.097Z,29.70
2019-06-26T08:52:51.712Z,30.00
2019-06-26T08:55:20.276Z,29.50
2019-06-26T09:02:45.488Z,29.40
2019-06-26T09:10:11.420Z,29.60
2019-06-26T09:12:39.980Z,29.60
2019-06-26T09:15:29.415Z,29.60
2019-06-26T09:20:38.127Z,29.80
2019-06-26T09:23:06.893Z,29.90
2019-06-26T09:25:35.577Z,29.90
2019-06-26T09:28:05.367Z,30.00
2019-06-26T09:30:34.106Z,29.90
2019-06-26T09:33:02.545Z,30.10
2019-06-26T09:40:27.415Z,30.10
2019-06-26T09:45:24.320Z,30.40
2019-06-26T09:47:52.830Z,30.40
2019-06-26T09:50:21.540Z,30.30
2019-06-26T09:55:18.616Z,30.30
2019-06-26T09:57:47.059Z,30.60
2019-06-26T10:00:18.556Z,30.50
2019-06-26T10:02:46.997Z,30.50
2019-06-26T10:05:16.796Z,30.50
2019-06-26T10:10:14.691Z,30.40
2019-06-26T10:15:11.910Z,30.30
2019-06-26T10:17:40.347Z,30.30
2019-06-26T10:20:09.366Z,30.30
2019-06-26T10:22:37.864Z,30.60
2019-06-26T10:25:11.272Z,30.40
2019-06-26T10:27:38.647Z,30.20
2019-06-26T10:30:08.088Z,30.10
2019-06-26T10:35:06.164Z,30.30
2019-06-26T10:37:34.620Z,30.70
2019-06-26T10:40:03.287Z,31.00
2019-06-26T10:42:31.743Z,31.10
2019-06-26T10:45:00.286Z,31.30
2019-06-26T10:47:28.908Z,31.40
2019-06-26T10:49:57.336Z,31.00
2019-06-26T10:52:26.000Z,30.90
2019-06-26T10:54:54.455Z,31.00
2019-06-26T10:57:23.112Z,31.10
2019-06-26T10:59:55.531Z,31.50
2019-06-26T11:02:21.827Z,31.00
2019-06-26T11:09:46.613Z,31.20
2019-06-26T11:12:15.139Z,31.20
2019-06-26T11:14:43.624Z,31.40
2019-06-26T11:19:44.298Z,31.20
2019-06-26T11:22:10.583Z,31.00
2019-06-26T11:24:39.113Z,30.90
2019-06-26T11:27:07.657Z,30.80
2019-06-26T11:37:04.231Z,31.70
2019-06-26T11:49:23.907Z,31.50
2019-06-26T11:54:20.541Z,31.50
2019-06-26T11:59:17.132Z,31.60
2019-06-26T12:04:13.869Z,31.60
2019-06-26T12:06:45.660Z,31.60
2019-06-26T12:09:12.680Z,31.50
2019-06-26T12:11:41.158Z,31.40
2019-06-26T12:14:09.624Z,31.70
2019-06-26T12:16:38.068Z,31.60
2019-06-26T12:19:06.542Z,31.50
2019-06-26T12:24:03.259Z,30.90
2019-06-26T12:26:33.876Z,31.10
2019-06-26T12:29:02.412Z,31.40
2019-06-26T12:36:27.103Z,31.40
2019-06-26T12:41:23.787Z,31.50
2019-06-26T12:46:20.659Z,31.30
2019-06-26T12:48:49.168Z,30.90
2019-06-26T12:51:17.698Z,31.20
2019-06-26T12:56:14.297Z,31.30
2019-06-26T12:58:42.740Z,31.40
2019-06-26T13:01:11.201Z,31.50
2019-06-26T13:06:08.019Z,31.50
2019-06-26T13:13:33.131Z,31.40
2019-06-26T13:16:01.669Z,31.30
2019-06-26T13:18:30.173Z,31.20
2019-06-26T13:20:58.683Z,31.20
2019-06-26T13:23:27.272Z,31.30
2019-06-26T13:28:23.935Z,31.30
2019-06-26T13:30:53.494Z,31.50
2019-06-26T13:33:22.198Z,31.70
2019-06-26T13:40:47.068Z,31.60
2019-06-26T13:43:16.392Z,31.60
2019-06-26T13:45:44.874Z,31.50
2019-06-26T13:48:13.317Z,31.60
2019-06-26T13:50:41.873Z,31.50
2019-06-26T13:58:06.633Z,31.50
2019-06-26T14:00:35.112Z,31.20
2019-06-26T14:03:03.654Z,31.40
2019-06-26T14:05:32.083Z,31.60
2019-06-26T14:08:00.535Z,31.40
2019-06-26T14:22:49.990Z,31.50
2019-06-26T14:25:19.280Z,31.50
2019-06-26T14:27:47.724Z,31.60
2019-06-26T14:32:44.759Z,31.60
2019-06-26T14:35:13.475Z,31.50
2019-06-26T14:40:10.326Z,31.50
2019-06-26T14:42:38.944Z,31.30
2019-06-26T14:52:35.110Z,31.60
2019-06-26T14:57:32.747Z,31.70
2019-06-26T15:00:01.304Z,31.50
2019-06-26T15:02:31.957Z,31.70
2019-06-26T15:04:59.935Z,31.70
2019-06-26T15:07:28.475Z,31.40
2019-06-26T15:12:25.070Z,31.40
2019-06-26T15:14:53.549Z,31.50
2019-06-26T15:17:21.986Z,31.20
2019-06-26T15:19:50.441Z,31.20
2019-06-26T15:22:18.883Z,31.30
2019-06-26T15:24:47.624Z,31.40
2019-06-26T15:27:16.046Z,31.30
2019-06-26T15:29:44.556Z,31.40
2019-06-26T15:32:13.014Z,31.50
2019-06-26T15:34:41.702Z,31.60
2019-06-26T15:37:10.235Z,31.40
2019-06-26T15:39:38.699Z,31.50
2019-06-26T15:42:07.148Z,31.40
2019-06-26T15:44:35.673Z,31.30
2019-06-26T15:47:04.204Z,31.50
2019-06-26T15:49:32.675Z,31.50
2019-06-26T15:54:31.010Z,31.40
2019-06-26T15:59:30.888Z,31.40
2019-06-26T16:01:57.735Z,31.50
2019-06-26T16:04:26.279Z,31.30
2019-06-26T16:06:54.774Z,31.40
2019-06-26T16:09:23.229Z,31.60
2019-06-26T16:14:19.894Z,31.30
2019-06-26T16:19:22.347Z,31.40
2019-06-26T16:24:19.019Z,31.50
2019-06-26T16:26:47.768Z,31.20
2019-06-26T16:29:16.209Z,31.20
2019-06-26T16:31:44.737Z,31.30
2019-06-26T16:34:13.181Z,31.20
2019-06-26T16:36:41.646Z,31.30
2019-06-26T16:41:38.323Z,31.20
2019-06-26T16:46:35.176Z,31.30
2019-06-26T16:49:05.234Z,31.00
2019-06-26T16:51:33.831Z,31.30
2019-06-26T16:56:30.407Z,30.90
2019-06-26T16:58:58.903Z,30.90
2019-06-26T17:03:55.476Z,30.90
2019-06-26T17:06:23.946Z,30.70
2019-06-26T17:08:52.406Z,30.70
2019-06-26T17:11:21.108Z,30.60
2019-06-26T17:13:49.637Z,30.90
2019-06-26T17:18:46.224Z,30.80
2019-06-26T17:21:14.992Z,30.90
2019-06-26T17:23:43.431Z,30.80
2019-06-26T17:26:11.959Z,31.00
2019-06-26T17:31:08.561Z,30.80
2019-06-26T17:33:36.999Z,30.90
2019-06-26T17:41:02.129Z,30.30
2019-06-26T17:43:31.118Z,30.30
2019-06-26T17:45:59.619Z,29.90
2019-06-26T17:50:56.164Z,30.20
2019-06-26T17:53:24.641Z,30.10
2019-06-26T18:03:17.692Z,30.10
2019-06-26T18:05:46.159Z,30.00
2019-06-26T18:08:14.732Z,29.60
2019-06-26T18:10:43.210Z,29.60
2019-06-26T18:13:11.764Z,29.60
2019-06-26T18:15:40.235Z,29.70
2019-06-26T18:28:03.003Z,29.30
2019-06-26T18:35:27.884Z,29.00
2019-06-26T18:37:56.354Z,29.10
2019-06-26T18:40:24.787Z,29.00
2019-06-26T18:45:21.349Z,28.90
2019-06-26T18:47:49.839Z,28.80
2019-06-26T18:52:46.906Z,28.70
2019-06-26T18:55:15.796Z,28.60
2019-06-26T18:57:44.264Z,28.30
2019-06-26T19:02:41.114Z,28.40
2019-06-26T19:07:37.871Z,28.10
2019-06-26T19:10:08.072Z,28.20
2019-06-26T19:12:36.690Z,28.00
2019-06-26T19:24:58.356Z,27.90
2019-06-26T19:29:55.046Z,27.50
2019-06-26T19:32:23.544Z,27.30
2019-06-26T19:37:20.309Z,27.30
2019-06-26T19:39:48.780Z,27.20
2019-06-26T19:47:13.552Z,27.00
2019-06-26T19:49:42.007Z,26.80
2019-06-26T19:52:10.439Z,26.80
2019-06-26T19:54:38.989Z,26.90
2019-06-26T19:57:07.536Z,26.80
2019-06-26T19:59:36.015Z,26.70
2019-06-26T20:02:04.719Z,26.50
2019-06-26T20:04:33.252Z,26.60
2019-06-26T20:07:01.791Z,26.60
2019-06-26T20:09:30.349Z,26.50
2019-06-26T20:11:59.068Z,26.50
2019-06-26T20:14:27.674Z,26.40
2019-06-26T20:16:56.357Z,26.20
2019-06-26T20:19:24.915Z,26.30
2019-06-26T20:21:53.439Z,26.20
2019-06-26T20:24:21.876Z,26.20
2019-06-26T20:29:18.461Z,25.90
2019-06-26T20:31:46.991Z,26.00
2019-06-26T20:34:15.423Z,25.90
2019-06-26T20:41:40.371Z,25.60
2019-06-26T20:44:08.783Z,25.70
2019-06-26T20:46:37.326Z,25.60
2019-06-26T20:51:33.899Z,25.50
2019-06-26T20:54:02.357Z,25.30
2019-06-26T20:56:30.888Z,25.40
2019-06-26T21:01:27.738Z,25.30
2019-06-26T21:03:56.394Z,25.20
2019-06-26T21:06:24.915Z,25.00
2019-06-26T21:08:53.454Z,25.10
2019-06-26T21:11:21.954Z,25.70
2019-06-26T21:13:50.617Z,25.10
2019-06-26T21:16:19.151Z,25.00
2019-06-26T21:18:47.694Z,25.00
2019-06-26T21:21:16.154Z,25.00
2019-06-26T21:23:44.591Z,25.00
2019-06-26T21:28:41.340Z,24.80
2019-06-26T21:33:38.572Z,24.70
2019-06-26T21:36:07.084Z,24.70
2019-06-26T21:38:35.608Z,24.80
2019-06-26T21:41:04.156Z,24.60
2019-06-26T21:43:32.619Z,24.50
2019-06-26T21:46:01.142Z,24.50
2019-06-26T21:48:29.687Z,24.50
2019-06-26T21:51:12.191Z,24.50
2019-06-26T21:56:09.253Z,24.30
2019-06-26T22:01:06.240Z,24.10
2019-06-26T22:03:34.753Z,24.20
2019-06-26T22:06:03.210Z,24.00
2019-06-26T22:10:59.847Z,24.10
2019-06-26T22:13:28.608Z,24.10
2019-06-26T22:15:57.054Z,24.00
2019-06-26T22:20:53.634Z,24.00
2019-06-26T22:23:22.080Z,23.90
2019-06-26T22:30:51.206Z,24.10
2019-06-26T22:33:19.678Z,23.40
2019-06-26T22:35:48.208Z,23.40
2019-06-26T22:38:16.696Z,23.60
2019-06-26T22:43:13.283Z,23.60
2019-06-26T22:45:41.860Z,23.40
2019-06-26T22:50:38.513Z,23.50
2019-06-26T22:53:07.016Z,23.50
2019-06-26T22:55:35.586Z,23.40
2019-06-26T22:58:04.100Z,23.10
2019-06-26T23:03:00.681Z,22.90
2019-06-26T23:05:29.144Z,23.10
2019-06-26T23:07:57.564Z,23.10
2019-06-26T23:10:26.028Z,23.00
2019-06-26T23:15:22.654Z,22.90
2019-06-26T23:17:51.140Z,22.80
2019-06-26T23:20:19.676Z,22.70
2019-06-26T23:22:48.203Z,22.40
2019-06-26T23:25:16.832Z,22.90
2019-06-26T23:27:45.357Z,23.10
2019-06-26T23:30:18.067Z,22.60
2019-06-26T23:32:46.637Z,22.70
2019-06-26T23:35:15.274Z,22.50
2019-06-26T23:37:43.773Z,22.60
2019-06-26T23:42:40.429Z,22.60
2019-06-26T23:47:37.156Z,22.40
2019-06-26T23:50:06.160Z,22.40
2019-06-26T23:52:34.592Z,22.40
2019-06-26T23:55:03.422Z,22.00
2019-06-26T23:59:59.976Z,22.20
